Time;durP1;ratioP1;P1;durP2;ratioP2;P2;SDS_P1;SDS_P2;PMS_P1;PMS_P2;Temp;Humidity;BMP_temperature;BMP_pressure;BME280_temperature;BME280_humidity;BME280_pressure;Samples;Min_cycle;Max_cycle;Signal;HPM_P1;HPM_P2
2021/11/19 00:02:44;;;;;;;13.30;3.50;;;11.40;99.90;;;;;;20734524;28;20049;-46
2021/11/19 00:12:44;;;;;;;11.93;3.60;;;11.30;99.90;;;;;;20736217;28;21006;-45
2021/11/19 00:22:45;;;;;;;8.45;3.78;;;11.20;99.90;;;;;;20740953;28;20057;-46
2021/11/19 00:32:46;;;;;;;12.35;3.35;;;11.20;99.90;;;;;;20744724;28;20045;-45
2021/11/19 00:42:47;;;;;;;9.20;3.28;;;11.20;99.90;;;;;;20741332;28;21584;-46
2021/11/19 00:52:48;;;;;;;14.32;3.97;;;11.30;99.90;;;;;;20742823;28;20383;-48
2021/11/19 01:02:49;;;;;;;12.77;3.53;;;11.40;99.90;;;;;;20733691;28;20457;-46
2021/11/19 01:12:50;;;;;;;8.88;3.75;;;11.40;99.90;;;;;;20733821;28;20073;-46
2021/11/19 01:22:53;;;;;;;8.25;2.50;;;11.50;99.90;;;;;;20740040;28;20038;-45
2021/11/19 01:32:54;;;;;;;6.20;2.75;;;11.60;99.90;;;;;;20757931;28;20036;-46
2021/11/19 01:43:04;;;;;;;6.77;3.33;;;11.60;99.90;;;;;;20751195;28;20049;-45
2021/11/19 01:53:31;;;;;;;9.45;4.50;;;11.70;99.90;;;;;;20750196;28;20296;-46
2021/11/19 02:03:38;;;;;;;9.20;4.43;;;11.70;99.90;;;;;;20758234;28;20040;-46
2021/11/19 02:13:46;;;;;;;10.40;3.93;;;11.70;99.90;;;;;;20748368;28;20033;-46
2021/11/19 02:23:53;;;;;;;9.95;3.28;;;11.70;99.90;;;;;;20733279;28;20065;-45
2021/11/19 02:33:57;;;;;;;6.90;3.25;;;11.80;99.90;;;;;;20751710;28;20583;-45
2021/11/19 02:44:04;;;;;;;12.68;3.33;;;11.80;99.90;;;;;;20757446;28;20064;-47
2021/11/19 02:54:08;;;;;;;10.05;3.85;;;11.90;99.90;;;;;;20748402;28;20040;-45
2021/11/19 03:04:15;;;;;;;7.70;2.97;;;12.00;99.90;;;;;;20744466;28;20863;-46
2021/11/19 03:14:18;;;;;;;10.87;4.57;;;11.90;99.90;;;;;;20748398;28;20069;-46
2021/11/19 03:24:22;;;;;;;10.88;4.28;;;11.90;99.90;;;;;;20746093;28;20084;-46
2021/11/19 03:34:23;;;;;;;9.95;4.05;;;11.90;99.90;;;;;;20749899;28;20041;-46
2021/11/19 03:44:33;;;;;;;10.23;4.53;;;11.80;99.90;;;;;;20742120;28;21255;-46
2021/11/19 03:54:37;;;;;;;11.82;4.55;;;11.80;99.90;;;;;;20740004;28;20042;-46
2021/11/19 04:04:39;;;;;;;12.77;4.70;;;11.80;99.90;;;;;;20741827;28;20106;-46
2021/11/19 04:14:40;;;;;;;10.13;4.47;;;11.80;99.90;;;;;;20739342;28;20512;-46
2021/11/19 04:24:54;;;;;;;12.70;4.10;;;11.80;99.90;;;;;;20734693;28;20642;-46
2021/11/19 04:34:56;;;;;;;17.67;5.28;;;11.90;99.90;;;;;;20738869;28;20681;-46
2021/11/19 04:44:57;;;;;;;11.00;4.35;;;11.90;99.90;;;;;;20731324;28;20467;-45
2021/11/19 04:54:58;;;;;;;11.00;4.45;;;12.10;99.90;;;;;;20696109;28;21125;-45
2021/11/19 05:04:58;;;;;;;8.75;3.67;;;12.00;99.90;;;;;;20705028;28;20069;-45
2021/11/19 05:14:59;;;;;;;11.67;4.07;;;12.00;99.90;;;;;;20708263;28;20046;-45
2021/11/19 05:25:00;;;;;;;13.07;3.95;;;12.00;99.90;;;;;;20707720;28;20308;-46
2021/11/19 05:35:01;;;;;;;10.57;3.97;;;12.00;99.90;;;;;;20705641;28;20041;-46
2021/11/19 05:45:03;;;;;;;14.40;4.15;;;12.10;99.90;;;;;;20704606;28;20410;-46
2021/11/19 05:55:09;;;;;;;5.93;2.78;;;12.10;99.90;;;;;;20711282;28;20099;-45
2021/11/19 06:05:11;;;;;;;6.53;2.65;;;12.20;99.90;;;;;;20697491;28;20401;-45
2021/11/19 06:15:28;;;;;;;6.95;2.55;;;12.20;99.90;;;;;;20698279;28;20394;-45
2021/11/19 06:25:33;;;;;;;5.93;1.77;;;12.20;99.90;;;;;;20694684;28;20707;-46
2021/11/19 06:35:34;;;;;;;6.22;2.03;;;12.40;99.90;;;;;;20699030;28;20465;-46
2021/11/19 06:45:35;;;;;;;7.72;2.83;;;12.40;99.90;;;;;;20699673;28;20493;-46
2021/11/19 06:55:36;;;;;;;7.07;2.35;;;12.30;99.90;;;;;;20725486;28;20041;-45
2021/11/19 07:05:37;;;;;;;5.80;2.42;;;12.40;99.90;;;;;;20728512;28;20049;-45
2021/11/19 07:15:38;;;;;;;10.95;2.15;;;12.30;99.90;;;;;;20722931;28;20045;-45
2021/11/19 07:25:39;;;;;;;5.07;1.50;;;12.40;99.90;;;;;;20725688;28;20533;-46
2021/11/19 07:35:42;;;;;;;5.05;1.90;;;12.50;99.90;;;;;;20725390;28;20049;-46
2021/11/19 07:45:43;;;;;;;6.78;2.15;;;12.40;99.90;;;;;;20732333;28;20085;-46
2021/11/19 07:55:45;;;;;;;3.72;1.60;;;12.50;99.90;;;;;;20731917;28;20042;-46
2021/11/19 08:05:49;;;;;;;5.55;1.58;;;12.60;99.90;;;;;;20711343;28;20073;-45
2021/11/19 08:15:50;;;;;;;10.63;2.22;;;12.60;99.90;;;;;;20734765;28;20037;-45
2021/11/19 08:25:52;;;;;;;9.45;2.35;;;12.60;99.90;;;;;;20733211;28;20037;-45
2021/11/19 08:35:53;;;;;;;3.03;1.17;;;12.60;99.90;;;;;;20743917;28;20049;-45
2021/11/19 08:45:56;;;;;;;5.60;2.10;;;12.60;99.90;;;;;;20734466;28;20038;-45
2021/11/19 08:55:59;;;;;;;5.95;1.40;;;12.70;99.90;;;;;;20735122;28;20204;-45
2021/11/19 09:06:01;;;;;;;5.07;1.38;;;12.70;99.90;;;;;;20739172;28;20076;-46
2021/11/19 09:16:07;;;;;;;5.03;1.35;;;12.80;99.90;;;;;;20730096;28;20042;-45
2021/11/19 09:26:16;;;;;;;3.13;1.13;;;12.80;99.90;;;;;;20698750;28;20056;-45
2021/11/19 09:36:17;;;;;;;3.92;1.00;;;12.80;99.90;;;;;;20731382;28;20049;-45
2021/11/19 09:47:02;;;;;;;9.68;1.90;;;13.10;99.90;;;;;;20733348;28;20050;-45
2021/11/19 09:57:27;;;;;;;4.07;1.45;;;13.20;99.90;;;;;;20735856;28;20694;-45
2021/11/19 10:07:52;;;;;;;3.20;1.60;;;13.20;99.90;;;;;;20758114;28;20042;-46
2021/11/19 10:18:00;;;;;;;4.07;1.05;;;13.30;99.90;;;;;;20760508;28;20041;-46
2021/11/19 10:28:05;;;;;;;4.80;1.23;;;13.40;99.90;;;;;;20752877;28;20206;-46
2021/11/19 10:38:12;;;;;;;4.28;1.02;;;13.80;99.90;;;;;;20748487;28;20120;-47
2021/11/19 10:48:41;;;;;;;9.30;1.03;;;13.90;99.90;;;;;;20743673;28;20057;-46
2021/11/19 10:59:21;;;;;;;2.35;0.85;;;14.50;99.90;;;;;;20744756;28;20124;-47
2021/11/19 11:09:28;;;;;;;3.85;0.95;;;15.20;99.90;;;;;;20733357;28;20661;-45
2021/11/19 11:19:30;;;;;;;3.07;0.80;;;16.00;99.90;;;;;;20740962;28;20583;-45
2021/11/19 11:29:52;;;;;;;3.40;0.73;;;15.30;99.90;;;;;;20742050;28;20529;-45
2021/11/19 11:40:13;;;;;;;1.70;0.50;;;14.60;99.90;;;;;;20725782;28;20378;-45
2021/11/19 11:50:55;;;;;;;1.63;0.40;;;14.90;99.90;;;;;;20749263;28;20106;-45
2021/11/19 12:01:03;;;;;;;1.25;0.30;;;16.20;99.90;;;;;;20683548;28;20080;-45
2021/11/19 12:11:22;;;;;;;1.13;0.50;;;15.60;99.90;;;;;;20745310;28;20588;-46
2021/11/19 12:21:46;;;;;;;2.17;0.45;;;15.10;99.90;;;;;;20749900;28;20053;-45
2021/11/19 12:32:02;;;;;;;5.30;0.80;;;15.10;99.90;;;;;;20745649;28;20092;-45
2021/11/19 12:42:43;;;;;;;3.97;0.83;;;15.00;99.90;;;;;;20746420;28;20539;-45
2021/11/19 12:53:08;;;;;;;4.32;0.80;;;14.80;99.90;;;;;;20705235;28;20120;-45
2021/11/19 13:03:46;;;;;;;2.28;0.28;;;14.60;99.90;;;;;;20744844;28;20062;-45
2021/11/19 13:13:46;;;;;;;2.03;0.50;;;14.60;99.90;;;;;;20726200;28;20749;-45
2021/11/19 13:23:53;;;;;;;5.32;0.52;;;14.50;99.90;;;;;;20753228;28;20505;-45
2021/11/19 13:34:03;;;;;;;1.97;0.33;;;14.40;99.90;;;;;;20761028;28;20041;-45
2021/11/19 13:44:04;;;;;;;0.55;0.40;;;14.60;99.90;;;;;;20756809;28;20109;-46
2021/11/19 13:54:31;;;;;;;2.00;0.75;;;14.80;99.90;;;;;;20760140;28;20029;-45
2021/11/19 14:04:48;;;;;;;1.60;0.55;;;14.80;99.90;;;;;;20757486;28;20088;-45
2021/11/19 14:14:53;;;;;;;4.97;0.43;;;14.50;99.90;;;;;;20755991;28;20167;-45
2021/11/19 14:25:08;;;;;;;3.72;0.70;;;14.30;99.90;;;;;;20754898;28;20383;-45
2021/11/19 14:35:40;;;;;;;1.30;0.57;;;14.30;99.90;;;;;;20762957;28;20390;-45
2021/11/19 14:45:46;;;;;;;13.50;0.82;;;14.20;99.90;;;;;;20762005;28;20061;-45
2021/11/19 14:55:46;;;;;;;4.97;0.98;;;14.20;99.90;;;;;;20761700;28;20524;-47
2021/11/19 15:05:56;;;;;;;2.15;0.70;;;13.80;99.90;;;;;;20761457;28;20386;-45
2021/11/19 15:16:05;;;;;;;1.80;0.50;;;13.60;99.90;;;;;;20756783;28;21761;-45
2021/11/19 15:26:33;;;;;;;2.00;1.27;;;13.20;99.90;;;;;;20738561;28;20081;-45
2021/11/19 15:36:46;;;;;;;1.83;0.80;;;13.10;99.90;;;;;;20752229;28;20049;-45
2021/11/19 15:46:50;;;;;;;2.53;1.20;;;12.70;99.90;;;;;;20745662;28;20316;-45
2021/11/19 15:57:14;;;;;;;4.75;0.88;;;12.60;99.90;;;;;;20749580;28;20037;-45
2021/11/19 16:07:42;;;;;;;3.40;0.93;;;12.30;99.90;;;;;;20745820;28;20494;-45
2021/11/19 16:17:43;;;;;;;4.27;1.07;;;12.10;99.90;;;;;;20702019;28;20045;-45
2021/11/19 16:27:45;;;;;;;2.10;1.08;;;11.80;99.90;;;;;;20740786;28;20045;-45
2021/11/19 16:37:49;;;;;;;2.25;0.95;;;11.60;99.90;;;;;;20731389;28;20049;-45
2021/11/19 16:47:51;;;;;;;8.30;1.42;;;11.40;99.90;;;;;;20737737;28;20417;-45
2021/11/19 16:57:54;;;;;;;5.28;1.90;;;11.10;99.90;;;;;;20690006;28;20120;-45
2021/11/19 17:07:56;;;;;;;9.13;4.03;;;11.00;99.90;;;;;;20723316;28;20970;-45
2021/11/19 17:17:57;;;;;;;8.90;3.38;;;11.00;99.90;;;;;;20731788;28;20071;-45
2021/11/19 17:28:00;;;;;;;3.28;1.50;;;10.90;99.90;;;;;;20724996;28;20050;-45
2021/11/19 17:38:03;;;;;;;4.50;1.77;;;10.90;99.90;;;;;;20735276;28;20255;-45
2021/11/19 17:48:09;;;;;;;5.57;2.30;;;10.90;99.90;;;;;;20731158;28;20069;-45
2021/11/19 17:58:11;;;;;;;5.20;2.55;;;10.90;99.90;;;;;;20743105;28;20071;-45
2021/11/19 18:08:13;;;;;;;5.43;2.72;;;10.80;99.90;;;;;;20745912;28;20037;-45
2021/11/19 18:18:15;;;;;;;6.40;3.33;;;10.90;99.90;;;;;;20736543;28;20053;-45
2021/11/19 18:28:17;;;;;;;6.25;3.20;;;11.00;99.90;;;;;;20759644;28;20635;-45
2021/11/19 18:38:23;;;;;;;24.77;6.55;;;11.10;99.90;;;;;;20741779;28;20133;-45
2021/11/19 18:48:27;;;;;;;5.60;2.53;;;11.20;99.90;;;;;;20703473;28;20041;-45
2021/11/19 18:58:29;;;;;;;8.18;3.38;;;11.30;99.90;;;;;;20737294;28;20107;-45
2021/11/19 19:08:30;;;;;;;9.93;3.10;;;11.30;99.90;;;;;;20734502;28;20053;-45
2021/11/19 19:18:32;;;;;;;5.10;2.53;;;11.30;99.90;;;;;;20732553;28;20129;-45
2021/11/19 19:28:44;;;;;;;4.93;2.47;;;11.40;99.90;;;;;;20737149;28;20114;-45
2021/11/19 19:38:46;;;;;;;15.60;6.80;;;11.50;99.90;;;;;;20739476;28;20490;-45
2021/11/19 19:48:48;;;;;;;10.88;4.25;;;11.50;99.90;;;;;;20719004;28;20084;-45
2021/11/19 19:58:49;;;;;;;13.52;5.85;;;11.50;99.90;;;;;;20748109;28;20190;-45
2021/11/19 20:08:50;;;;;;;8.02;2.88;;;11.40;99.90;;;;;;20749300;28;20041;-45
2021/11/19 20:18:52;;;;;;;4.70;1.88;;;11.50;99.90;;;;;;20708616;28;20372;-45
2021/11/19 20:28:53;;;;;;;5.43;2.67;;;11.50;99.90;;;;;;20746788;28;20060;-45
2021/11/19 20:38:54;;;;;;;8.00;2.20;;;11.50;99.90;;;;;;20746063;28;20374;-45
2021/11/19 20:48:58;;;;;;;6.80;1.88;;;11.60;99.90;;;;;;20705675;28;20045;-45
2021/11/19 20:59:00;;;;;;;4.15;2.33;;;11.60;99.90;;;;;;20749486;28;20549;-45
2021/11/19 21:09:04;;;;;;;3.88;1.70;;;11.70;99.90;;;;;;20742135;28;20069;-45
2021/11/19 21:19:09;;;;;;;3.90;1.65;;;11.60;99.90;;;;;;20748834;28;20060;-45
2021/11/19 21:29:12;;;;;;;5.63;2.42;;;11.70;99.90;;;;;;20762944;28;20045;-45
2021/11/19 21:39:13;;;;;;;3.00;1.30;;;11.80;99.90;;;;;;20759601;28;20646;-45
2021/11/19 21:49:14;;;;;;;6.13;1.70;;;11.80;99.90;;;;;;20771274;28;20053;-45
2021/11/19 21:59:21;;;;;;;8.88;2.47;;;11.90;99.90;;;;;;20774296;28;20095;-46
2021/11/19 22:09:29;;;;;;;4.23;1.43;;;11.80;99.90;;;;;;20769106;28;20049;-45
2021/11/19 22:19:31;;;;;;;5.38;2.38;;;11.80;99.90;;;;;;20764368;28;20057;-46
2021/11/19 22:29:32;;;;;;;3.95;1.77;;;11.80;99.90;;;;;;20771788;28;20041;-45
2021/11/19 22:39:42;;;;;;;5.72;2.28;;;11.80;99.90;;;;;;20779575;28;20041;-46
2021/11/19 22:49:44;;;;;;;3.15;1.75;;;11.80;99.90;;;;;;20779980;28;20444;-45
2021/11/19 22:59:47;;;;;;;4.22;1.77;;;11.70;99.90;;;;;;20766158;28;20042;-45
2021/11/19 23:09:54;;;;;;;4.00;1.80;;;11.70;99.90;;;;;;20763708;28;20049;-45
2021/11/19 23:19:56;;;;;;;10.93;4.97;;;11.70;99.90;;;;;;20758365;28;20061;-45
2021/11/19 23:29:58;;;;;;;6.65;2.55;;;11.70;99.90;;;;;;20777864;28;22746;-45
2021/11/19 23:40:01;;;;;;;4.47;2.45;;;11.70;99.90;;;;;;20768847;28;20080;-46
2021/11/19 23:50:03;;;;;;;5.60;2.58;;;11.60;99.90;;;;;;20750327;28;20045;-45
